Time;durP1;ratioP1;P1;durP2;ratioP2;P2;SDS_P1;SDS_P2;PMS_P1;PMS_P2;Temp;Humidity;BMP_temperature;BMP_pressure;BME280_temperature;BME280_humidity;BME280_pressure;Samples;Min_cycle;Max_cycle;Signal;HPM_P1;HPM_P2
2023/05/06 00:09:40;;;;;;;5.53;3.63;;;16.10;99.90;;;;;;21231077;27;20205;-71
2023/05/06 00:19:43;;;;;;;6.83;3.60;;;16.00;99.90;;;;;;21248260;27;20232;-71
2023/05/06 00:29:46;;;;;;;3.80;3.40;;;16.00;99.90;;;;;;21248116;27;20209;-71
2023/05/06 00:39:47;;;;;;;6.93;4.10;;;15.90;99.90;;;;;;21247668;28;20293;-71
2023/05/06 00:49:50;;;;;;;5.10;3.90;;;15.90;99.90;;;;;;21247123;28;20820;-71
2023/05/06 00:59:53;;;;;;;8.97;4.33;;;15.80;99.90;;;;;;21247267;28;20692;-71
2023/05/06 01:10:01;;;;;;;6.93;3.77;;;15.80;99.90;;;;;;21246776;28;20224;-71
2023/05/06 01:20:05;;;;;;;9.67;4.37;;;15.90;99.90;;;;;;21246105;28;20228;-71
2023/05/06 01:30:07;;;;;;;5.23;4.30;;;15.80;99.90;;;;;;21245866;28;20655;-71
2023/05/06 01:40:09;;;;;;;6.47;4.93;;;15.80;99.90;;;;;;21251501;27;20229;-71
2023/05/06 01:50:11;;;;;;;8.03;4.67;;;15.70;99.90;;;;;;21260137;27;20236;-72
2023/05/06 02:00:13;;;;;;;8.03;4.50;;;15.70;99.90;;;;;;21258819;27;20290;-72
2023/05/06 02:10:15;;;;;;;6.80;3.97;;;15.80;99.90;;;;;;21258900;27;20204;-72
2023/05/06 02:20:17;;;;;;;6.27;4.30;;;15.70;99.90;;;;;;21238603;27;20229;-72
2023/05/06 02:30:19;;;;;;;10.90;6.10;;;15.60;99.90;;;;;;21257804;27;20221;-71
2023/05/06 02:40:21;;;;;;;5.73;4.80;;;15.30;99.90;;;;;;21256703;27;20236;-70
2023/05/06 02:50:22;;;;;;;7.07;4.80;;;15.30;99.90;;;;;;21256591;27;20235;-71
2023/05/06 03:00:24;;;;;;;8.80;5.00;;;15.20;99.90;;;;;;21260401;27;20239;-71
2023/05/06 03:10:26;;;;;;;8.63;5.60;;;15.10;99.90;;;;;;21254868;27;20243;-71
2023/05/06 03:20:28;;;;;;;9.83;5.50;;;14.90;99.90;;;;;;21253100;27;20266;-71
2023/05/06 03:30:29;;;;;;;6.20;5.23;;;14.80;99.90;;;;;;21252142;27;20298;-71
2023/05/06 03:40:32;;;;;;;6.13;5.17;;;14.70;99.90;;;;;;21251765;27;20697;-71
2023/05/06 03:50:34;;;;;;;10.37;5.53;;;14.60;99.90;;;;;;21250423;27;20272;-71
2023/05/06 04:00:35;;;;;;;7.80;5.43;;;14.60;99.90;;;;;;21231322;27;20285;-70
2023/05/06 04:10:39;;;;;;;9.17;5.83;;;14.60;99.90;;;;;;21249791;27;20197;-71
2023/05/06 04:20:40;;;;;;;5.83;5.00;;;14.40;99.90;;;;;;21248856;27;20257;-71
2023/05/06 04:30:43;;;;;;;10.30;5.93;;;14.50;99.90;;;;;;21248405;27;20229;-71
2023/05/06 04:40:45;;;;;;;7.73;5.20;;;14.50;99.90;;;;;;21248088;28;20265;-71
2023/05/06 04:50:47;;;;;;;8.90;5.50;;;14.50;99.90;;;;;;21247497;28;20675;-71
2023/05/06 05:00:49;;;;;;;7.53;5.27;;;14.50;99.90;;;;;;21212390;28;20301;-71
2023/05/06 05:10:54;;;;;;;7.83;5.40;;;14.50;99.90;;;;;;21246766;28;20699;-71
2023/05/06 05:20:55;;;;;;;8.67;5.93;;;14.60;99.90;;;;;;21261562;27;20236;-71
2023/05/06 05:31:04;;;;;;;11.37;5.37;;;14.80;99.90;;;;;;21243571;27;20201;-71
2023/05/06 05:41:08;;;;;;;8.17;6.03;;;15.00;99.90;;;;;;21261948;27;20239;-69
2023/05/06 05:51:10;;;;;;;9.30;6.70;;;15.30;99.90;;;;;;21258190;27;20233;-71
2023/05/06 06:01:11;;;;;;;10.13;7.27;;;15.60;99.90;;;;;;21258871;27;20240;-71
2023/05/06 06:11:13;;;;;;;8.13;4.33;;;15.90;99.90;;;;;;21259009;27;20224;-71
2023/05/06 06:21:15;;;;;;;10.83;9.00;;;16.00;99.90;;;;;;21257707;27;20233;-71
2023/05/06 06:31:17;;;;;;;8.20;4.13;;;16.20;99.90;;;;;;21237656;27;20207;-71
2023/05/06 06:41:19;;;;;;;4.00;3.57;;;16.30;99.90;;;;;;21238596;27;20322;-71
2023/05/06 06:51:20;;;;;;;6.50;3.50;;;16.40;99.40;;;;;;21256433;27;20318;-71
2023/05/06 07:01:22;;;;;;;5.77;3.33;;;16.90;98.70;;;;;;21254159;27;20283;-71
2023/05/06 07:11:24;;;;;;;3.50;3.10;;;16.80;98.80;;;;;;21252753;27;20208;-72
2023/05/06 07:21:26;;;;;;;4.63;3.10;;;17.30;97.50;;;;;;21233340;27;20306;-71
2023/05/06 07:31:28;;;;;;;4.70;3.17;;;17.60;97.10;;;;;;21251009;27;20217;-71
2023/05/06 07:41:30;;;;;;;6.57;2.70;;;17.70;97.40;;;;;;21249840;27;20228;-72
2023/05/06 07:51:32;;;;;;;3.37;3.00;;;17.80;96.10;;;;;;21247548;27;20236;-72
2023/05/06 08:01:35;;;;;;;5.43;3.10;;;17.90;95.80;;;;;;21229792;27;20296;-70
2023/05/06 08:11:36;;;;;;;3.77;2.77;;;18.00;96.20;;;;;;21229418;27;20212;-71
2023/05/06 08:21:38;;;;;;;5.07;2.13;;;18.30;95.60;;;;;;21246190;27;20228;-71
2023/05/06 08:31:40;;;;;;;2.93;2.20;;;18.40;94.40;;;;;;21229246;27;20201;-71
2023/05/06 08:41:47;;;;;;;4.90;2.43;;;18.70;93.50;;;;;;21247674;28;20702;-71
2023/05/06 08:51:51;;;;;;;2.30;1.77;;;19.20;90.50;;;;;;21256170;27;20242;-72
2023/05/06 09:01:53;;;;;;;6.63;2.47;;;19.20;90.10;;;;;;21264039;27;20232;-71
2023/05/06 09:12:00;;;;;;;8.97;5.27;;;19.40;87.80;;;;;;21263458;27;20209;-72
2023/05/06 09:22:02;;;;;;;2.57;1.80;;;19.40;85.50;;;;;;21262116;27;20229;-72
2023/05/06 09:32:07;;;;;;;3.87;1.80;;;19.50;83.40;;;;;;21261527;27;20679;-72
2023/05/06 09:42:08;;;;;;;2.80;1.40;;;19.60;82.00;;;;;;21260975;27;20256;-71
2023/05/06 09:52:11;;;;;;;2.60;1.43;;;19.90;78.50;;;;;;21259584;27;20698;-72
2023/05/06 10:02:13;;;;;;;2.13;1.20;;;20.10;76.80;;;;;;21258749;27;20225;-72
2023/05/06 10:12:15;;;;;;;2.50;1.40;;;20.20;75.80;;;;;;21258613;27;20610;-72
2023/05/06 10:22:29;;;;;;;1.77;1.47;;;20.30;75.60;;;;;;21257490;27;20243;-72
2023/05/06 10:32:31;;;;;;;6.57;5.40;;;20.10;75.50;;;;;;21238834;27;20209;-73
2023/05/06 10:42:34;;;;;;;11.97;7.40;;;20.00;75.90;;;;;;21258751;27;20233;-72
2023/05/06 10:52:43;;;;;;;2.73;1.67;;;20.00;75.80;;;;;;21254732;27;20264;-72
2023/05/06 11:02:53;;;;;;;1.93;1.57;;;20.20;75.30;;;;;;21236349;27;20237;-72
2023/05/06 11:12:55;;;;;;;2.70;1.60;;;20.50;74.90;;;;;;21254387;27;20209;-73
2023/05/06 11:22:57;;;;;;;3.93;1.57;;;20.60;73.90;;;;;;21252339;27;20239;-72
2023/05/06 11:33:03;;;;;;;3.67;3.17;;;20.90;71.60;;;;;;21251537;27;20209;-72
2023/05/06 11:43:10;;;;;;;3.40;1.70;;;21.20;68.50;;;;;;21251710;27;20631;-72
2023/05/06 11:53:15;;;;;;;2.13;1.20;;;21.30;67.20;;;;;;21250301;27;20280;-72
2023/05/06 12:03:18;;;;;;;2.60;1.23;;;21.20;64.90;;;;;;21249785;27;20252;-72
2023/05/06 12:13:20;;;;;;;1.40;1.13;;;22.00;62.30;;;;;;21249246;27;20196;-73
2023/05/06 12:23:22;;;;;;;1.30;1.03;;;22.20;62.40;;;;;;21248140;27;20224;-73
2023/05/06 12:33:24;;;;;;;3.73;1.17;;;21.90;63.20;;;;;;21247663;27;20648;-73
2023/05/06 12:43:30;;;;;;;2.10;1.13;;;22.20;61.50;;;;;;21247032;28;20241;-72
2023/05/06 12:53:34;;;;;;;2.10;1.23;;;22.70;59.10;;;;;;21228951;28;20233;-72
2023/05/06 13:03:37;;;;;;;1.80;1.10;;;22.90;57.50;;;;;;21246389;28;20599;-73
2023/05/06 13:13:39;;;;;;;1.53;1.00;;;22.70;57.00;;;;;;21246705;28;20580;-73
2023/05/06 13:23:46;;;;;;;2.00;1.40;;;22.80;56.40;;;;;;21246033;28;20241;-72
2023/05/06 13:33:48;;;;;;;3.67;1.00;;;22.70;55.90;;;;;;21247319;27;20251;-72
2023/05/06 13:43:51;;;;;;;6.53;1.27;;;22.90;56.10;;;;;;21260368;27;20259;-72
2023/05/06 13:53:52;;;;;;;3.37;1.10;;;23.70;55.90;;;;;;21259070;27;20327;-72
2023/05/06 14:03:54;;;;;;;1.73;1.20;;;24.00;55.60;;;;;;21259033;27;20692;-73
2023/05/06 14:13:56;;;;;;;2.10;1.10;;;24.20;55.30;;;;;;21258486;27;20219;-72
2023/05/06 14:23:58;;;;;;;1.77;1.40;;;24.40;54.30;;;;;;21258319;27;20288;-72
2023/05/06 14:34:01;;;;;;;1.60;1.10;;;24.40;53.00;;;;;;21260331;27;20197;-71
2023/05/06 14:44:03;;;;;;;6.70;1.20;;;25.60;52.20;;;;;;21255816;27;20233;-72
2023/05/06 14:54:04;;;;;;;1.42;0.88;;;27.70;48.20;;;;;;21254990;27;20324;-72
2023/05/06 15:04:08;;;;;;;3.03;1.02;;;27.10;47.60;;;;;;21253932;27;20235;-72
2023/05/06 15:14:10;;;;;;;1.35;0.85;;;27.00;47.60;;;;;;21252945;27;20254;-72
2023/05/06 15:24:12;;;;;;;3.40;0.90;;;30.00;43.20;;;;;;21234905;27;20247;-72
2023/05/06 15:34:13;;;;;;;1.30;1.05;;;29.50;42.50;;;;;;21251840;27;20720;-72
2023/05/06 15:44:15;;;;;;;1.08;0.80;;;28.80;42.80;;;;;;21251064;27;20240;-71
2023/05/06 15:54:17;;;;;;;2.65;1.20;;;28.80;42.00;;;;;;21250573;27;20231;-73
2023/05/06 16:04:18;;;;;;;1.92;1.10;;;28.70;42.70;;;;;;21249320;27;20285;-73
2023/05/06 16:14:21;;;;;;;1.92;1.20;;;29.00;42.30;;;;;;21248745;27;20205;-73
2023/05/06 16:24:22;;;;;;;2.47;1.00;;;30.20;41.40;;;;;;21248483;27;20228;-73
2023/05/06 16:34:24;;;;;;;1.58;1.10;;;32.50;39.60;;;;;;21249001;27;20201;-72
2023/05/06 16:44:27;;;;;;;3.75;1.15;;;30.00;41.10;;;;;;21247489;28;20293;-72
2023/05/06 16:54:29;;;;;;;2.58;1.10;;;29.30;42.10;;;;;;21229048;28;20233;-72
2023/05/06 17:04:31;;;;;;;2.85;1.60;;;28.80;42.60;;;;;;21246505;28;20233;-70
2023/05/06 17:14:34;;;;;;;2.85;1.20;;;27.80;43.50;;;;;;21258164;27;20201;-70
2023/05/06 17:24:35;;;;;;;3.50;1.47;;;26.20;45.60;;;;;;21262446;27;20688;-71
2023/05/06 17:34:37;;;;;;;2.73;1.30;;;25.10;47.20;;;;;;21243291;27;20286;-71
2023/05/06 17:44:41;;;;;;;1.37;1.27;;;24.10;48.60;;;;;;21260775;27;20229;-71
2023/05/06 17:54:43;;;;;;;5.53;1.50;;;23.30;50.10;;;;;;21259499;27;20700;-68
2023/05/06 18:04:46;;;;;;;3.40;1.37;;;22.60;51.70;;;;;;21259762;27;20696;-66
2023/05/06 18:14:47;;;;;;;5.43;1.53;;;22.30;53.00;;;;;;21260477;27;20205;-68
2023/05/06 18:24:53;;;;;;;2.77;1.67;;;22.00;53.80;;;;;;21189379;27;20618;-70
2023/05/06 18:34:55;;;;;;;4.23;3.40;;;21.70;55.90;;;;;;21171266;28;20657;-70
2023/05/06 18:44:58;;;;;;;10.63;5.77;;;21.20;57.10;;;;;;21170486;28;20233;-69
2023/05/06 18:55:01;;;;;;;5.20;4.30;;;21.20;57.70;;;;;;21169731;28;20242;-69
2023/05/06 19:05:03;;;;;;;6.37;4.67;;;21.00;58.50;;;;;;21169236;28;20719;-70
2023/05/06 19:15:05;;;;;;;7.67;5.47;;;20.90;59.70;;;;;;21194022;27;20205;-74
2023/05/06 19:25:08;;;;;;;5.20;3.20;;;20.70;60.00;;;;;;21209474;27;20229;-75
2023/05/06 19:35:10;;;;;;;6.87;3.10;;;20.50;60.40;;;;;;21207330;27;20209;-69
2023/05/06 19:45:13;;;;;;;6.27;3.53;;;20.30;61.30;;;;;;21199756;27;20271;-69
2023/05/06 19:55:18;;;;;;;5.77;2.33;;;20.10;63.10;;;;;;21191061;27;20220;-68
2023/05/06 20:05:20;;;;;;;5.30;2.73;;;19.80;65.70;;;;;;21207568;27;20237;-68
2023/05/06 20:15:22;;;;;;;4.73;3.60;;;19.50;67.70;;;;;;21201379;27;20209;-68
2023/05/06 20:25:24;;;;;;;9.37;6.63;;;19.40;68.30;;;;;;21209839;27;20236;-70
2023/05/06 20:35:26;;;;;;;5.57;3.03;;;19.30;69.20;;;;;;21169492;27;20210;-70
2023/05/06 20:45:29;;;;;;;7.07;3.47;;;19.10;70.80;;;;;;21168037;28;20239;-70
2023/05/06 20:55:32;;;;;;;5.87;3.57;;;18.80;73.00;;;;;;21179588;28;20235;-69
2023/05/06 21:05:34;;;;;;;5.13;3.77;;;18.60;74.40;;;;;;21179026;28;20288;-74
2023/05/06 21:15:37;;;;;;;4.57;3.70;;;18.30;76.90;;;;;;21178647;28;20212;-75
2023/05/06 21:25:38;;;;;;;5.13;3.60;;;17.90;79.70;;;;;;21239817;27;20709;-73
2023/05/06 21:35:40;;;;;;;5.30;3.70;;;17.60;82.30;;;;;;21261512;27;20255;-75
2023/05/06 21:45:42;;;;;;;5.00;3.53;;;17.60;83.10;;;;;;21260969;27;20316;-74
2023/05/06 21:55:44;;;;;;;7.40;3.80;;;17.50;84.80;;;;;;21260720;27;20274;-68
2023/05/06 22:05:46;;;;;;;5.70;3.77;;;17.40;85.80;;;;;;21260987;27;20303;-69
2023/05/06 22:15:47;;;;;;;5.47;4.13;;;17.30;86.80;;;;;;21258434;27;20210;-68
2023/05/06 22:25:53;;;;;;;8.43;4.30;;;17.20;88.10;;;;;;21257992;27;20226;-70
2023/05/06 22:35:55;;;;;;;8.67;4.07;;;17.10;90.00;;;;;;21257180;27;20280;-68
2023/05/06 22:45:56;;;;;;;7.10;4.40;;;17.00;90.40;;;;;;21256170;27;20229;-68
2023/05/06 22:55:58;;;;;;;5.70;4.27;;;16.80;91.00;;;;;;21255808;27;20233;-69
2023/05/06 23:06:00;;;;;;;6.77;4.30;;;16.70;91.60;;;;;;21253661;27;20229;-69
2023/05/06 23:16:02;;;;;;;8.23;4.40;;;16.70;92.10;;;;;;21253936;27;20208;-69
2023/05/06 23:26:04;;;;;;;6.13;4.07;;;16.50;92.80;;;;;;21253283;27;20581;-69
2023/05/06 23:36:06;;;;;;;7.13;4.27;;;16.60;93.00;;;;;;21252269;27;20205;-69
2023/05/06 23:46:08;;;;;;;6.90;3.80;;;16.50;93.10;;;;;;21251096;27;20704;-74
2023/05/06 23:56:10;;;;;;;7.23;4.00;;;16.40;93.30;;;;;;21250760;27;20244;-75
